Observation data for Tulia on 05/27/2019      Previous  Date  Next       Current Mesonet Observations  Soil Data  Daily Summary Page  Observations in Plain Language
KTIS 270500Z 14008KT 20/18 A299 RMK A01 T02010175  RH  090%=      5-min Rain = 0
KTIS 270505Z 13008KT 20/17 A299 RMK A01 T01980174  RH  091%=      5-min Rain = 0
KTIS 270510Z 13007KT 20/17 A299 RMK A01 T01950173  RH  091%=      5-min Rain = 0
KTIS 270515Z 13007KT 19/17 A299 RMK A01 T01930173  RH  092%=      5-min Rain = 0
KTIS 270520Z 13006KT 19/17 A299 RMK A01 T01920172  RH  093%=      5-min Rain = 0
KTIS 270525Z 14008KT 19/17 A2989 RMK A01 T01910172  RH  093%=      5-min Rain = 0
KTIS 270530Z 14007KT 19/17 A2989 RMK A01 T01910172  RH  093%=      5-min Rain = 0
KTIS 270535Z 15007KT 19/17 A299 RMK A01 T01900171  RH  093%=      5-min Rain = 0
KTIS 270540Z 15007KT 19/17 A2989 RMK A01 T01890171  RH  093%=      5-min Rain = 0
KTIS 270545Z 17005KT 19/17 A299 RMK A01 T01880170  RH  094%=      5-min Rain = 0
KTIS 270550Z 16005KT 19/17 A2989 RMK A01 T01870169  RH  094%=      5-min Rain = 0
KTIS 270555Z 16005KT 19/17 A2989 RMK A01 T01860169  RH  094%=      5-min Rain = 0
KTIS 270600Z 15006KT 19/17 A2989 RMK A01 T01860169  RH  094%=      5-min Rain = 0
KTIS 270605Z 15006KT 19/17 A299 RMK A01 T01870169  RH  094%=      5-min Rain = 0
KTIS 270610Z 15006KT 19/17 A299 RMK A01 T01870169  RH  094%=      5-min Rain = 0
KTIS 270615Z 15006KT 19/17 A299 RMK A01 T01860168  RH  094%=      5-min Rain = 0
KTIS 270620Z 14006KT 18/17 A299 RMK A01 T01840166  RH  094%=      5-min Rain = 0
KTIS 270625Z 13006KT 18/17 A299 RMK A01 T01830166  RH  094%=      5-min Rain = 0
KTIS 270630Z 13006KT 18/17 A299 RMK A01 T01820166  RH  095%=      5-min Rain = 0
KTIS 270635Z 13006KT 18/17 A299 RMK A01 T01820166  RH  095%=      5-min Rain = 0
KTIS 270640Z 13006KT 18/17 A299 RMK A01 T01820166  RH  095%=      5-min Rain = 0
KTIS 270645Z 13006KT 18/17 A299 RMK A01 T01820166  RH  095%=      5-min Rain = 0
KTIS 270650Z 13006KT 18/17 A299 RMK A01 T01820166  RH  095%=      5-min Rain = 0
KTIS 270655Z 14005KT 18/17 A299 RMK A01 T01820166  RH  095%=      5-min Rain = 0
KTIS 270700Z 14006KT 18/17 A299 RMK A01 T01820166  RH  095%=      5-min Rain = 0
KTIS 270705Z 13006KT 18/17 A2989 RMK A01 T01810165  RH  095%=      5-min Rain = 0
KTIS 270710Z 12005KT 18/17 A2989 RMK A01 T01800165  RH  095%=      5-min Rain = 0
KTIS 270715Z 11005KT 18/16 A2989 RMK A01 T01770162  RH  095%=      5-min Rain = 0
KTIS 270720Z 09005KT 18/16 A2989 RMK A01 T01750160  RH  095%=      5-min Rain = 0
KTIS 270725Z 08005KT 17/16 A2989 RMK A01 T01740160  RH  096%=      5-min Rain = 0
KTIS 270730Z 08005KT 17/16 A2989 RMK A01 T01720159  RH  096%=      5-min Rain = 0
KTIS 270735Z 08006KT 17/16 A2989 RMK A01 T01720158  RH  096%=      5-min Rain = 0
KTIS 270740Z 09006KT 17/16 A2989 RMK A01 T01710158  RH  096%=      5-min Rain = 0
KTIS 270745Z 10006KT 17/16 A2989 RMK A01 T01710158  RH  097%=      5-min Rain = 0
KTIS 270750Z 11006KT 17/16 A2989 RMK A01 T01710159  RH  097%=      5-min Rain = 0
KTIS 270755Z 12007KT 17/16 A2988 RMK A01 T01700158  RH  097%=      5-min Rain = 0
KTIS 270800Z 13007KT 17/16 A2988 RMK A01 T01700158  RH  097%=      5-min Rain = 0
KTIS 270805Z 13006KT 17/16 A2988 RMK A01 T01700158  RH  097%=      5-min Rain = 0
KTIS 270810Z 14006KT 17/16 A2988 RMK A01 T01690157  RH  097%=      5-min Rain = 0
KTIS 270815Z 14006KT 17/16 A2987 RMK A01 T01700158  RH  097%=      5-min Rain = 0
KTIS 270820Z 14007KT 17/16 A2987 RMK A01 T01700159  RH  097%=      5-min Rain = 0
KTIS 270825Z 14007KT 17/16 A2987 RMK A01 T01710159  RH  097%=      5-min Rain = 0
KTIS 270830Z 15006KT 17/16 A2987 RMK A01 T01710160  RH  097%=      5-min Rain = 0
KTIS 270835Z 16006KT 17/16 A2987 RMK A01 T01720160  RH  097%=      5-min Rain = 0
KTIS 270840Z 16006KT 17/16 A2986 RMK A01 T01710159  RH  097%=      5-min Rain = 0
KTIS 270845Z 16006KT 17/16 A2986 RMK A01 T01700158  RH  097%=      5-min Rain = 0
KTIS 270850Z 16006KT 17/16 A2986 RMK A01 T01690157  RH  097%=      5-min Rain = 0
KTIS 270855Z 17005KT 17/16 A2987 RMK A01 T01700158  RH  097%=      5-min Rain = 0
KTIS 270900Z 16005KT 17/16 A2987 RMK A01 T01700158  RH  097%=      5-min Rain = 0
KTIS 270905Z 16005KT 17/16 A2987 RMK A01 T01690157  RH  097%=      5-min Rain = 0
KTIS 270910Z 16005KT 17/16 A2987 RMK A01 T01680156  RH  097%=      5-min Rain = 0
KTIS 270915Z 16005KT 17/15 A2987 RMK A01 T01660154  RH  097%=      5-min Rain = 0
KTIS 270920Z 17004KT 17/15 A2987 RMK A01 T01660153  RH  097%=      5-min Rain = 0
KTIS 270925Z 18004KT 17/15 A2987 RMK A01 T01660154  RH  097%=      5-min Rain = 0
KTIS 270930Z 18005KT 17/15 A2987 RMK A01 T01650153  RH  097%=      5-min Rain = 0
KTIS 270935Z 18006KT 17/15 A2987 RMK A01 T01650154  RH  097%=      5-min Rain = 0
KTIS 270940Z 17006KT 17/15 A2987 RMK A01 T01660154  RH  097%=      5-min Rain = 0
KTIS 270945Z 18005KT 17/16 A2987 RMK A01 T01670155  RH  097%=      5-min Rain = 0
KTIS 270950Z 17005KT 17/15 A2987 RMK A01 T01660154  RH  097%=      5-min Rain = 0
KTIS 270955Z 17004KT 17/15 A2987 RMK A01 T01660154  RH  097%=      5-min Rain = 0
KTIS 271000Z 18003KT 17/15 A2987 RMK A01 T01650153  RH  097%=      5-min Rain = 0
KTIS 271005Z 17003KT 16/15 A2987 RMK A01 T01640152  RH  097%=      5-min Rain = 0
KTIS 271010Z 18004KT 16/15 A2987 RMK A01 T01620150  RH  097%=      5-min Rain = 0
KTIS 271015Z 19005KT 16/15 A2987 RMK A01 T01620150  RH  097%=      5-min Rain = 0
KTIS 271020Z 19005KT 16/15 A2987 RMK A01 T01610150  RH  097%=      5-min Rain = 0
KTIS 271025Z 19006KT 16/15 A2987 RMK A01 T01610150  RH  097%=      5-min Rain = 0
KTIS 271030Z 19006KT 16/15 A2987 RMK A01 T01610149  RH  097%=      5-min Rain = 0
KTIS 271035Z 19005KT 16/15 A2987 RMK A01 T01600149  RH  097%=      5-min Rain = 0
KTIS 271040Z 19005KT 16/15 A2987 RMK A01 T01590148  RH  097%=      5-min Rain = 0
KTIS 271045Z 19005KT 16/15 A2987 RMK A01 T01580147  RH  097%=      5-min Rain = 0
KTIS 271050Z 20005KT 16/15 A2988 RMK A01 T01580147  RH  097%=      5-min Rain = 0
KTIS 271055Z 20005KT 16/15 A2988 RMK A01 T01560146  RH  097%=      5-min Rain = 0
KTIS 271100Z 20006KT 16/15 A2988 RMK A01 T01560146  RH  098%=      5-min Rain = 0
KTIS 271105Z 19005KT 16/15 A2988 RMK A01 T01560145  RH  098%=      5-min Rain = 0
KTIS 271110Z 19005KT 16/15 A2988 RMK A01 T01550145  RH  098%=      5-min Rain = 0
KTIS 271115Z 19005KT 16/14 A2988 RMK A01 T01550144  RH  098%=      5-min Rain = 0
KTIS 271120Z 19005KT 15/14 A2988 RMK A01 T01540144  RH  098%=      5-min Rain = 0
KTIS 271125Z 20006KT 15/14 A2988 RMK A01 T01520142  RH  098%=      5-min Rain = 0
KTIS 271130Z 21005KT 15/14 A2988 RMK A01 T01530144  RH  098%=      5-min Rain = 0
KTIS 271135Z 21004KT 16/15 A2988 RMK A01 T01550145  RH  098%=      5-min Rain = 0
KTIS 271140Z 21005KT 15/14 A2988 RMK A01 T01540144  RH  098%=      5-min Rain = 0
KTIS 271145Z 21004KT 15/14 A2988 RMK A01 T01530143  RH  098%=      5-min Rain = 0
KTIS 271150Z 21004KT 15/14 A2989 RMK A01 T01530143  RH  098%=      5-min Rain = 0
KTIS 271155Z 21004KT 15/14 A2989 RMK A01 T01530143  RH  098%=      5-min Rain = 0
KTIS 271200Z 20005KT 15/14 A2989 RMK A01 T01530144  RH  098%=      5-min Rain = 0
KTIS 271205Z 20005KT 15/14 A2989 RMK A01 T01540144  RH  098%=      5-min Rain = 0
KTIS 271210Z 20005KT 15/15 A2989 RMK A01 T01540145  RH  098%=      5-min Rain = 0
KTIS 271215Z 20005KT 16/15 A2989 RMK A01 T01550146  RH  098%=      5-min Rain = 0
KTIS 271220Z 20005KT 16/15 A2989 RMK A01 T01560147  RH  098%=      5-min Rain = 0
KTIS 271225Z 21003KT 16/15 A2989 RMK A01 T01580148  RH  098%=      5-min Rain = 0
KTIS 271230Z 22003KT 16/15 A2989 RMK A01 T01600151  RH  098%=      5-min Rain = 0
KTIS 271235Z 21003KT 16/15 A2989 RMK A01 T01620152  RH  098%=      5-min Rain = 0
KTIS 271240Z 20003KT 16/15 A2989 RMK A01 T01630154  RH  098%=      5-min Rain = 0
KTIS 271245Z 19004KT 17/16 A2989 RMK A01 T01660156  RH  098%=      5-min Rain = 0
KTIS 271250Z 19004KT 17/16 A299 RMK A01 T01670157  RH  098%=      5-min Rain = 0
KTIS 271255Z 20004KT 17/16 A299 RMK A01 T01690159  RH  098%=      5-min Rain = 0
KTIS 271300Z 20004KT 17/16 A299 RMK A01 T01720161  RH  098%=      5-min Rain = 0
KTIS 271305Z 20005KT 17/16 A299 RMK A01 T01730162  RH  098%=      5-min Rain = 0
KTIS 271310Z 20006KT 18/16 A299 RMK A01 T01760164  RH  097%=      5-min Rain = 0
KTIS 271315Z 20007KT 18/17 A299 RMK A01 T01780165  RH  097%=      5-min Rain = 0
KTIS 271320Z 20008KT 18/17 A299 RMK A01 T01800167  RH  096%=      5-min Rain = 0
KTIS 271325Z 21009KT 18/17 A299 RMK A01 T01830168  RH  096%=      5-min Rain = 0
KTIS 271330Z 21009KT 19/17 A299 RMK A01 T01860170  RH  095%=      5-min Rain = 0
KTIS 271335Z 21010KT 19/17 A299 RMK A01 T01890171  RH  094%=      5-min Rain = 0
KTIS 271340Z 21010KT 19/17 A299 RMK A01 T01910172  RH  094%=      5-min Rain = 0
KTIS 271345Z 21012G17KT 19/17 A299 RMK A01 T01920173  RH  093%=      5-min Rain = 0
KTIS 271350Z 21012KT 19/17 A2989 RMK A01 T01920172  RH  093%=      5-min Rain = 0
KTIS 271355Z 21012KT 19/17 A2989 RMK A01 T01930173  RH  093%=      5-min Rain = 0
KTIS 271400Z 21012KT 20/17 A2989 RMK A01 T01960174  RH  092%=      5-min Rain = 0
KTIS 271405Z 21012G18KT 20/18 A2989 RMK A01 T01980175  RH  091%=      5-min Rain = 0
KTIS 271410Z 22014G19KT 20/17 A2989 RMK A01 T01970173  RH  091%=      5-min Rain = 0
KTIS 271415Z 21015KT 20/17 A2989 RMK A01 T01960172  RH  090%=      5-min Rain = 0
KTIS 271420Z 21013KT 20/17 A2989 RMK A01 T01990174  RH  090%=      5-min Rain = 0
KTIS 271425Z 21014KT 20/17 A2989 RMK A01 T02010174  RH  089%=      5-min Rain = 0
KTIS 271430Z 21012KT 20/18 A2989 RMK A01 T02040176  RH  089%=      5-min Rain = 0
KTIS 271435Z 21013KT 21/18 A2989 RMK A01 T02060175  RH  087%=      5-min Rain = 0
KTIS 271440Z 22011KT 21/17 A2989 RMK A01 T02060174  RH  086%=      5-min Rain = 0
KTIS 271445Z 21012KT 21/17 A2989 RMK A01 T02050172  RH  086%=      5-min Rain = 0
KTIS 271450Z 22012KT 21/17 A2989 RMK A01 T02080172  RH  084%=      5-min Rain = 0
KTIS 271455Z 22012KT 21/17 A2989 RMK A01 T02110173  RH  083%=      5-min Rain = 0
KTIS 271500Z 21012KT 21/17 A2989 RMK A01 T02110172  RH  082%=      5-min Rain = 0
KTIS 271505Z 22012KT 21/17 A2989 RMK A01 T02130171  RH  081%=      5-min Rain = 0
KTIS 271510Z 21012KT 21/17 A2989 RMK A01 T02140173  RH  081%=      5-min Rain = 0
KTIS 271515Z 21011KT 22/17 A2989 RMK A01 T02190174  RH  080%=      5-min Rain = 0
KTIS 271520Z 21012KT 22/17 A2989 RMK A01 T02200172  RH  078%=      5-min Rain = 0
KTIS 271525Z 21011KT 22/17 A2989 RMK A01 T02210170  RH  077%=      5-min Rain = 0
KTIS 271530Z 21011G16KT 22/17 A2989 RMK A01 T02230171  RH  076%=      5-min Rain = 0
KTIS 271535Z 21011KT 22/17 A2989 RMK A01 T02240169  RH  075%=      5-min Rain = 0
KTIS 271540Z 22012KT 23/17 A2989 RMK A01 T02260166  RH  072%=      5-min Rain = 0
KTIS 271545Z 22010KT 23/17 A2989 RMK A01 T02310168  RH  071%=      5-min Rain = 0
KTIS 271550Z 20011KT 23/17 A2989 RMK A01 T02310168  RH  071%=      5-min Rain = 0
KTIS 271555Z 22010G15KT 23/16 A2989 RMK A01 T02320162  RH  068%=      5-min Rain = 0
KTIS 271600Z 22010KT 24/16 A2989 RMK A01 T02350164  RH  067%=      5-min Rain = 0
KTIS 271605Z 21011KT 24/16 A2989 RMK A01 T02370163  RH  066%=      5-min Rain = 0
KTIS 271610Z 21010KT 24/17 A2989 RMK A01 T02380166  RH  068%=      5-min Rain = 0
KTIS 271615Z 22010KT 24/16 A2989 RMK A01 T02400161  RH  064%=      5-min Rain = 0
KTIS 271620Z 21009KT 24/16 A2989 RMK A01 T02420156  RH  061%=      5-min Rain = 0
KTIS 271625Z 21009KT 25/16 A2989 RMK A01 T02460159  RH  061%=      5-min Rain = 0
KTIS 271630Z 22009KT 25/16 A2988 RMK A01 T02470156  RH  060%=      5-min Rain = 0
KTIS 271635Z 20008KT 25/16 A2988 RMK A01 T02480163  RH  062%=      5-min Rain = 0
KTIS 271640Z 21007KT 25/15 A2988 RMK A01 T02500151  RH  057%=      5-min Rain = 0
KTIS 271645Z 21008KT 25/16 A2988 RMK A01 T02510162  RH  060%=      5-min Rain = 0
KTIS 271650Z 22009KT 25/15 A2987 RMK A01 T02540149  RH  055%=      5-min Rain = 0
KTIS 271655Z 22009KT 26/15 A2987 RMK A01 T02570145  RH  052%=      5-min Rain = 0
KTIS 271700Z 20010G15KT 26/15 A2987 RMK A01 T02590149  RH  053%=      5-min Rain = 0
KTIS 271705Z 21010KT 26/14 A2987 RMK A01 T02600144  RH  051%=      5-min Rain = 0
KTIS 271710Z 20010G16KT 26/14 A2987 RMK A01 T02620138  RH  048%=      5-min Rain = 0
KTIS 271715Z 21011KT 26/13 A2987 RMK A01 T02630134  RH  047%=      5-min Rain = 0
KTIS 271720Z 21010G15KT 26/14 A2987 RMK A01 T02630135  RH  047%=      5-min Rain = 0
KTIS 271725Z 20011KT 26/14 A2987 RMK A01 T02640140  RH  048%=      5-min Rain = 0
KTIS 271730Z 22009KT 26/14 A2987 RMK A01 T02640141  RH  049%=      5-min Rain = 0
KTIS 271735Z 21009G14KT 27/15 A2987 RMK A01 T02700149  RH  050%=      5-min Rain = 0
KTIS 271740Z 21009KT 27/14 A2987 RMK A01 T02680141  RH  048%=      5-min Rain = 0
KTIS 271745Z 20009KT 27/14 A2986 RMK A01 T02690144  RH  048%=      5-min Rain = 0
KTIS 271750Z 21011KT 27/13 A2986 RMK A01 T02690126  RH  043%=      5-min Rain = 0
KTIS 271755Z 21012KT 27/12 A2986 RMK A01 T02710121  RH  041%=      5-min Rain = 0
KTIS 271800Z 21011G16KT 27/12 A2986 RMK A01 T02740118  RH  039%=      5-min Rain = 0
KTIS 271805Z 20011G16KT 28/12 A2986 RMK A01 T02760117  RH  039%=      5-min Rain = 0
KTIS 271810Z 21013KT 28/11 A2986 RMK A01 T02770107  RH  036%=      5-min Rain = 0
KTIS 271815Z 20012G17KT 28/11 A2986 RMK A01 T02770113  RH  038%=      5-min Rain = 0
KTIS 271820Z 20013KT 28/10 A2986 RMK A01 T02760099  RH  034%=      5-min Rain = 0
KTIS 271825Z 22011G17KT 28/11 A2986 RMK A01 T02790113  RH  037%=      5-min Rain = 0
KTIS 271830Z 21012KT 28/11 A2985 RMK A01 T02770109  RH  036%=      5-min Rain = 0
KTIS 271835Z 20011G17KT 28/12 A2985 RMK A01 T02770118  RH  039%=      5-min Rain = 0
KTIS 271840Z 20013G19KT 28/10 A2985 RMK A01 T02790100  RH  034%=      5-min Rain = 0
KTIS 271845Z 20014KT 28/10 A2985 RMK A01 T02800101  RH  034%=      5-min Rain = 0
KTIS 271850Z 21012G17KT 28/09 A2984 RMK A01 T02810091  RH  031%=      5-min Rain = 0
KTIS 271855Z 20014G20KT 28/10 A2984 RMK A01 T02820097  RH  032%=      5-min Rain = 0
KTIS 271900Z 21013KT 29/08 A2984 RMK A01 T02850078  RH  028%=      5-min Rain = 0
KTIS 271905Z 20014G20KT 29/08 A2984 RMK A01 T02860080  RH  028%=      5-min Rain = 0
KTIS 271910Z 20013G20KT 29/08 A2984 RMK A01 T02870083  RH  029%=      5-min Rain = 0
KTIS 271915Z 20014G19KT 29/09 A2983 RMK A01 T02870086  RH  029%=      5-min Rain = 0
KTIS 271920Z 20016G22KT 29/08 A2983 RMK A01 T02880080  RH  028%=      5-min Rain = 0
KTIS 271925Z 21018G23KT 29/07 A2983 RMK A01 T02900074  RH  026%=      5-min Rain = 0
KTIS 271930Z 21015G24KT 29/08 A2983 RMK A01 T02920078  RH  027%=      5-min Rain = 0
KTIS 271935Z 21017G27KT 29/07 A2982 RMK A01 T02920070  RH  025%=      5-min Rain = 0
KTIS 271940Z 20020G27KT 29/06 A2982 RMK A01 T02910059  RH  024%=      5-min Rain = 0
KTIS 271945Z 20021G28KT 29/07 A2982 RMK A01 T02930068  RH  025%=      5-min Rain = 0
KTIS 271950Z 20020G28KT 29/07 A2982 RMK A01 T02920066  RH  025%=      5-min Rain = 0
KTIS 271955Z 21021G28KT 29/06 A2982 RMK A01 T02940055  RH  023%=      5-min Rain = 0
KTIS 272000Z 20017G25KT 30/06 A2982 RMK A01 T02950062  RH  024%=      5-min Rain = 0
KTIS 272005Z 20017G23KT 30/07 A2981 RMK A01 T02960066  RH  024%=      5-min Rain = 0
KTIS 272010Z 22020G26KT 30/05 A2981 RMK A01 T02960053  RH  022%=      5-min Rain = 0
KTIS 272015Z 20018G25KT 30/07 A298 RMK A01 T02960065  RH  024%=      5-min Rain = 0
KTIS 272020Z 21019G26KT 30/06 A298 RMK A01 T02960058  RH  023%=      5-min Rain = 0
KTIS 272025Z 20018G26KT 30/06 A298 RMK A01 T02980061  RH  023%=      5-min Rain = 0
KTIS 272030Z 21016G22KT 30/06 A298 RMK A01 T02970061  RH  023%=      5-min Rain = 0
KTIS 272035Z 19016G21KT 30/07 A298 RMK A01 T02980068  RH  024%=      5-min Rain = 0
KTIS 272040Z 19016G21KT 30/07 A2979 RMK A01 T02990071  RH  024%=      5-min Rain = 0
KTIS 272045Z 19014KT 30/07 A2979 RMK A01 T03000073  RH  025%=      5-min Rain = 0
KTIS 272050Z 20015G21KT 30/07 A2979 RMK A01 T03010068  RH  024%=      5-min Rain = 0
KTIS 272055Z 21017G23KT 30/07 A2978 RMK A01 T03010066  RH  023%=      5-min Rain = 0
KTIS 272100Z 20015G20KT 30/07 A2978 RMK A01 T03020070  RH  024%=      5-min Rain = 0
KTIS 272105Z 20017G22KT 30/07 A2978 RMK A01 T03010065  RH  023%=      5-min Rain = 0
KTIS 272110Z 20015G22KT 30/07 A2977 RMK A01 T03030067  RH  023%=      5-min Rain = 0
KTIS 272115Z 20015G21KT 30/06 A2977 RMK A01 T03030064  RH  023%=      5-min Rain = 0
KTIS 272120Z 19017G23KT 31/07 A2976 RMK A01 T03060070  RH  023%=      5-min Rain = 0
KTIS 272125Z 19014G19KT 31/08 A2976 RMK A01 T03070075  RH  024%=      5-min Rain = 0
KTIS 272130Z 20016G21KT 31/07 A2976 RMK A01 T03080067  RH  023%=      5-min Rain = 0
KTIS 272135Z 20018KT 31/06 A2976 RMK A01 T03080055  RH  021%=      5-min Rain = 0
KTIS 272140Z 19017G22KT 31/07 A2975 RMK A01 T03090066  RH  022%=      5-min Rain = 0
KTIS 272145Z 19018G25KT 31/06 A2975 RMK A01 T03090060  RH  021%=      5-min Rain = 0
KTIS 272150Z 18021G26KT 31/05 A2975 RMK A01 T03080054  RH  021%=      5-min Rain = 0
KTIS 272155Z 19018G24KT 31/06 A2975 RMK A01 T03080064  RH  022%=      5-min Rain = 0
KTIS 272200Z 18017G22KT 31/07 A2975 RMK A01 T03080072  RH  024%=      5-min Rain = 0
KTIS 272205Z 17014G21KT 31/08 A2974 RMK A01 T03080082  RH  025%=      5-min Rain = 0
KTIS 272210Z 18017G22KT 31/08 A2974 RMK A01 T03080078  RH  024%=      5-min Rain = 0
KTIS 272215Z 17016G22KT 31/07 A2974 RMK A01 T03070074  RH  024%=      5-min Rain = 0
KTIS 272220Z 18019G25KT 31/08 A2974 RMK A01 T03070076  RH  024%=      5-min Rain = 0
KTIS 272225Z 18016G23KT 31/08 A2974 RMK A01 T03090079  RH  025%=      5-min Rain = 0
KTIS 272230Z 18018G23KT 31/08 A2973 RMK A01 T03080076  RH  024%=      5-min Rain = 0
KTIS 272235Z 18018G24KT 31/08 A2973 RMK A01 T03090078  RH  024%=      5-min Rain = 0
KTIS 272240Z 18016G24KT 31/08 A2973 RMK A01 T03090081  RH  025%=      5-min Rain = 0
KTIS 272245Z 18018KT 31/08 A2973 RMK A01 T03080081  RH  025%=      5-min Rain = 0
KTIS 272250Z 18018G23KT 31/08 A2972 RMK A01 T03080076  RH  024%=      5-min Rain = 0
KTIS 272255Z 19017G22KT 31/07 A2972 RMK A01 T03090070  RH  023%=      5-min Rain = 0
KTIS 272300Z 20016G22KT 31/06 A2972 RMK A01 T03080063  RH  022%=      5-min Rain = 0
KTIS 272305Z 19016G23KT 31/08 A2972 RMK A01 T03070079  RH  025%=      5-min Rain = 0
KTIS 272310Z 18018G24KT 31/08 A2972 RMK A01 T03070082  RH  025%=      5-min Rain = 0
KTIS 272315Z 18017G23KT 31/09 A2972 RMK A01 T03060089  RH  027%=      5-min Rain = 0
KTIS 272320Z 18014G19KT 31/10 A2972 RMK A01 T03050101  RH  029%=      5-min Rain = 0
KTIS 272325Z 18016G21KT 30/10 A2972 RMK A01 T03040100  RH  029%=      5-min Rain = 0
KTIS 272330Z 18017KT 30/10 A2972 RMK A01 T03040098  RH  029%=      5-min Rain = 0
KTIS 272335Z 18015G21KT 30/10 A2972 RMK A01 T03030099  RH  029%=      5-min Rain = 0
KTIS 272340Z 18016G22KT 30/10 A2971 RMK A01 T03020099  RH  029%=      5-min Rain = 0
KTIS 272345Z 18014KT 30/10 A2971 RMK A01 T03010104  RH  031%=      5-min Rain = 0
KTIS 272350Z 17012KT 30/11 A2971 RMK A01 T02990112  RH  033%=      5-min Rain = 0
KTIS 272355Z 17013G20KT 29/16 A2971 RMK A01 T02920158  RH  046%=      5-min Rain = 0
KTIS 280000Z 17017G24KT 29/16 A2971 RMK A01 T02890161  RH  048%=      5-min Rain = 0
KTIS 280005Z 16018G23KT 29/16 A2971 RMK A01 T02860163  RH  050%=      5-min Rain = 0
KTIS 280010Z 16019G25KT 28/16 A2971 RMK A01 T02820163  RH  051%=      5-min Rain = 0
KTIS 280015Z 15018G27KT 28/16 A2971 RMK A01 T02790161  RH  051%=      5-min Rain = 0
KTIS 280020Z 15019G25KT 28/16 A2971 RMK A01 T02780160  RH  051%=      5-min Rain = 0
KTIS 280025Z 15019G26KT 28/16 A2971 RMK A01 T02760160  RH  052%=      5-min Rain = 0
KTIS 280030Z 16018KT 28/16 A2971 RMK A01 T02750162  RH  053%=      5-min Rain = 0
KTIS 280035Z 15018G24KT 27/16 A2971 RMK A01 T02740161  RH  053%=      5-min Rain = 0
KTIS 280040Z 16016G24KT 27/16 A2971 RMK A01 T02720161  RH  053%=      5-min Rain = 0
KTIS 280045Z 16016G22KT 27/16 A297 RMK A01 T02710162  RH  054%=      5-min Rain = 0
KTIS 280050Z 15016G21KT 27/16 A297 RMK A01 T02690161  RH  054%=      5-min Rain = 0
KTIS 280055Z 15016G21KT 27/16 A297 RMK A01 T02670161  RH  055%=      5-min Rain = 0
KTIS 280100Z 15015KT 27/16 A297 RMK A01 T02650160  RH  055%=      5-min Rain = 0
KTIS 280105Z 15016KT 26/16 A297 RMK A01 T02630159  RH  055%=      5-min Rain = 0
KTIS 280110Z 15015G20KT 26/16 A297 RMK A01 T02610158  RH  055%=      5-min Rain = 0
KTIS 280115Z 15016KT 26/16 A297 RMK A01 T02590158  RH  056%=      5-min Rain = 0
KTIS 280120Z 15016G21KT 26/16 A297 RMK A01 T02570158  RH  057%=      5-min Rain = 0
KTIS 280125Z 15014G19KT 26/16 A297 RMK A01 T02550159  RH  058%=      5-min Rain = 0
KTIS 280130Z 15015KT 25/16 A297 RMK A01 T02530158  RH  059%=      5-min Rain = 0
KTIS 280135Z 15014KT 25/16 A297 RMK A01 T02500157  RH  059%=      5-min Rain = 0
KTIS 280140Z 15014KT 25/16 A297 RMK A01 T02480156  RH  059%=      5-min Rain = 0
KTIS 280145Z 16013G19KT 25/16 A297 RMK A01 T02460155  RH  060%=      5-min Rain = 0
KTIS 280150Z 16014KT 24/16 A297 RMK A01 T02430155  RH  061%=      5-min Rain = 0
KTIS 280155Z 16013KT 24/16 A297 RMK A01 T02400157  RH  062%=      5-min Rain = 0
KTIS 280200Z 15013KT 24/16 A297 RMK A01 T02370158  RH  064%=      5-min Rain = 0
KTIS 280205Z 15012KT 24/16 A297 RMK A01 T02350160  RH  066%=      5-min Rain = 0
KTIS 280210Z 15012KT 23/16 A297 RMK A01 T02330162  RH  068%=      5-min Rain = 0
KTIS 280215Z 15012KT 23/17 A297 RMK A01 T02320166  RH  070%=      5-min Rain = 0
KTIS 280220Z 15012KT 23/17 A297 RMK A01 T02300168  RH  071%=      5-min Rain = 0
KTIS 280225Z 15013KT 23/17 A297 RMK A01 T02310171  RH  072%=      5-min Rain = 0
KTIS 280230Z 15013KT 23/17 A297 RMK A01 T02310172  RH  073%=      5-min Rain = 0
KTIS 280235Z 15013KT 23/17 A297 RMK A01 T02300174  RH  075%=      5-min Rain = 0
KTIS 280240Z 15013KT 23/18 A297 RMK A01 T02300176  RH  076%=      5-min Rain = 0
KTIS 280245Z 15014G21KT 23/18 A297 RMK A01 T02300178  RH  076%=      5-min Rain = 0
KTIS 280250Z 15014KT 23/18 A297 RMK A01 T02300180  RH  077%=      5-min Rain = 0
KTIS 280255Z 15014KT 23/18 A297 RMK A01 T02300182  RH  078%=      5-min Rain = 0
KTIS 280300Z 15014G20KT 23/18 A297 RMK A01 T02290183  RH  079%=      5-min Rain = 0
KTIS 280305Z 15014KT 23/18 A297 RMK A01 T02290184  RH  080%=      5-min Rain = 0
KTIS 280310Z 15013KT 23/18 A297 RMK A01 T02270184  RH  081%=      5-min Rain = 0
KTIS 280315Z 15014KT 23/19 A297 RMK A01 T02270185  RH  081%=      5-min Rain = 0
KTIS 280320Z 15014KT 23/19 A2971 RMK A01 T02270185  RH  081%=      5-min Rain = 0
KTIS 280325Z 15015G21KT 23/19 A2971 RMK A01 T02270185  RH  082%=      5-min Rain = 0
KTIS 280330Z 16016G21KT 23/19 A2971 RMK A01 T02280185  RH  081%=      5-min Rain = 0
KTIS 280335Z 16015G21KT 23/19 A2971 RMK A01 T02280186  RH  081%=      5-min Rain = 0
KTIS 280340Z 16015KT 23/19 A2971 RMK A01 T02270186  RH  082%=      5-min Rain = 0
KTIS 280345Z 16015G20KT 23/19 A2971 RMK A01 T02260186  RH  082%=      5-min Rain = 0
KTIS 280350Z 16013G18KT 23/19 A2971 RMK A01 T02250185  RH  082%=      5-min Rain = 0
KTIS 280355Z 16014KT 22/19 A2972 RMK A01 T02240185  RH  083%=      5-min Rain = 0
KTIS 280400Z 16013KT 22/19 A2972 RMK A01 T02230185  RH  083%=      5-min Rain = 0
KTIS 280405Z 16013KT 22/18 A2971 RMK A01 T02220184  RH  084%=      5-min Rain = 0
KTIS 280410Z 16014KT 22/18 A2971 RMK A01 T02220184  RH  084%=      5-min Rain = 0
KTIS 280415Z 16014KT 22/18 A2971 RMK A01 T02220184  RH  083%=      5-min Rain = 0
KTIS 280420Z 16013KT 22/18 A2971 RMK A01 T02210183  RH  084%=      5-min Rain = 0
KTIS 280425Z 16014KT 22/18 A2972 RMK A01 T02210183  RH  083%=      5-min Rain = 0
KTIS 280430Z 16015KT 22/18 A2972 RMK A01 T02200182  RH  083%=      5-min Rain = 0
KTIS 280435Z 16014G19KT 22/18 A2972 RMK A01 T02200182  RH  083%=      5-min Rain = 0
KTIS 280440Z 17015KT 22/18 A2972 RMK A01 T02200181  RH  083%=      5-min Rain = 0
KTIS 280445Z 17014KT 22/18 A2972 RMK A01 T02190181  RH  083%=      5-min Rain = 0
KTIS 280450Z 17014KT 22/18 A2972 RMK A01 T02190181  RH  083%=      5-min Rain = 0
KTIS 280455Z 17013G18KT 22/18 A2972 RMK A01 T02180180  RH  083%=      5-min Rain = 0

Page generated in 0.0124 seconds.